Time,TemperatureF,DewpointF,PressureIn,WindDirection,WindDirectionDegrees,WindSpeedMPH,WindSpeedGustMPH,Humidity,HourlyPrecipIn,Conditions,Clouds,dailyrainin,SoftwareType,DateUTC
2013-05-29 00:04:00,50.8,47.7,30.14,WNW,292,0.0,0.0,89,0.00,,,0.00,Wunderground v.1.15,2013-05-29 04:04:00,
2013-05-29 00:09:00,50.7,47.6,30.14,WNW,292,0.0,0.0,89,0.00,,,0.00,Wunderground v.1.15,2013-05-29 04:09:00,
2013-05-29 00:14:00,50.5,47.7,30.14,WNW,292,0.0,0.0,90,0.00,,,0.00,Wunderground v.1.15,2013-05-29 04:14:00,
2013-05-29 00:19:00,50.5,47.7,30.14,WNW,292,0.0,0.0,90,0.00,,,0.00,Wunderground v.1.15,2013-05-29 04:19:00,
2013-05-29 00:24:00,50.4,47.6,30.14,WNW,292,0.0,0.0,90,0.00,,,0.00,Wunderground v.1.15,2013-05-29 04:24:00,
2013-05-29 00:29:00,50.4,47.6,30.14,WNW,292,0.0,0.0,90,0.00,,,0.00,Wunderground v.1.15,2013-05-29 04:29:00,
2013-05-29 00:34:00,50.2,47.4,30.14,WNW,292,0.0,0.0,90,0.00,,,0.00,Wunderground v.1.15,2013-05-29 04:34:00,
2013-05-29 00:39:00,50.2,47.4,30.14,WNW,292,0.0,0.0,90,0.00,,,0.00,Wunderground v.1.15,2013-05-29 04:39:00,
2013-05-29 00:44:00,50.2,47.4,30.14,WNW,292,0.0,0.0,90,0.00,,,0.00,Wunderground v.1.15,2013-05-29 04:44:00,
2013-05-29 00:49:00,50.2,47.7,30.14,WNW,292,0.0,0.0,91,0.00,,,0.00,Wunderground v.1.15,2013-05-29 04:49:00,
2013-05-29 00:59:00,50.1,47.9,30.14,WNW,292,0.0,0.0,92,0.00,,,0.00,Wunderground v.1.15,2013-05-29 04:59:00,
2013-05-29 01:04:00,50.1,47.9,30.14,WNW,292,0.0,0.0,92,0.00,,,0.00,Wunderground v.1.15,2013-05-29 05:04:00,
2013-05-29 01:09:00,50.1,47.9,30.14,WNW,292,0.0,0.0,92,0.00,,,0.00,Wunderground v.1.15,2013-05-29 05:09:00,
2013-05-29 01:14:00,50.1,47.9,30.14,WNW,292,0.0,0.0,92,0.00,,,0.00,Wunderground v.1.15,2013-05-29 05:14:00,
2013-05-29 01:19:00,50.1,48.2,30.13,WNW,292,0.0,0.0,93,0.00,,,0.00,Wunderground v.1.15,2013-05-29 05:19:00,
2013-05-29 01:24:00,50.1,48.2,30.13,WNW,292,0.0,0.0,93,0.00,,,0.00,Wunderground v.1.15,2013-05-29 05:24:00,
2013-05-29 01:34:00,50.1,48.2,30.13,WNW,292,0.0,0.0,93,0.00,,,0.00,Wunderground v.1.15,2013-05-29 05:34:00,
2013-05-29 01:39:00,50.1,48.2,30.13,WNW,292,0.0,0.0,93,0.00,,,0.00,Wunderground v.1.15,2013-05-29 05:39:00,
2013-05-29 01:44:00,50.1,48.2,30.13,WNW,292,0.0,0.0,93,0.00,,,0.00,Wunderground v.1.15,2013-05-29 05:44:00,
2013-05-29 01:49:00,50.1,48.2,30.13,WNW,292,0.0,0.0,93,0.00,,,0.00,Wunderground v.1.15,2013-05-29 05:49:00,
2013-05-29 01:54:00,50.1,48.2,30.13,WNW,292,0.0,0.0,93,0.00,,,0.00,Wunderground v.1.15,2013-05-29 05:54:00,
2013-05-29 01:59:00,50.1,48.4,30.13,WNW,292,0.0,0.0,94,0.00,,,0.00,Wunderground v.1.15,2013-05-29 05:59:00,
2013-05-29 02:09:00,50.2,48.5,30.13,WNW,292,0.0,0.0,94,0.00,,,0.00,Wunderground v.1.15,2013-05-29 06:09:00,
2013-05-29 02:14:00,50.2,48.5,30.13,WNW,292,0.0,0.0,94,0.00,,,0.00,Wunderground v.1.15,2013-05-29 06:14:00,
2013-05-29 02:19:00,50.2,48.5,30.13,WNW,292,0.0,0.0,94,0.00,,,0.00,Wunderground v.1.15,2013-05-29 06:19:00,
2013-05-29 02:24:00,50.2,48.5,30.13,WNW,292,0.0,0.0,94,0.00,,,0.00,Wunderground v.1.15,2013-05-29 06:24:00,
2013-05-29 02:29:00,50.4,48.7,30.13,WNW,292,0.0,0.0,94,0.00,,,0.00,Wunderground v.1.15,2013-05-29 06:29:00,
2013-05-29 02:39:00,50.4,49.0,30.12,WNW,292,0.0,0.0,95,0.00,,,0.00,Wunderground v.1.15,2013-05-29 06:39:00,
2013-05-29 02:44:00,50.5,49.1,30.12,WNW,292,0.0,0.0,95,0.00,,,0.00,Wunderground v.1.15,2013-05-29 06:44:00,
2013-05-29 02:49:00,50.5,49.1,30.11,WNW,292,0.0,0.0,95,0.00,,,0.00,Wunderground v.1.15,2013-05-29 06:49:00,
2013-05-29 02:54:00,50.5,49.1,30.11,WNW,292,0.0,0.0,95,0.00,,,0.00,Wunderground v.1.15,2013-05-29 06:54:00,
2013-05-29 02:59:00,50.7,49.3,30.11,WNW,292,0.0,0.0,95,0.00,,,0.00,Wunderground v.1.15,2013-05-29 06:59:00,
2013-05-29 03:04:00,50.7,49.3,30.11,WNW,292,0.0,0.0,95,0.00,,,0.00,Wunderground v.1.15,2013-05-29 07:04:00,
2013-05-29 03:14:00,50.8,49.4,30.11,WNW,292,0.0,0.0,95,0.00,,,0.00,Wunderground v.1.15,2013-05-29 07:14:00,
2013-05-29 03:19:00,50.8,49.4,30.11,WNW,292,0.0,0.0,95,0.00,,,0.00,Wunderground v.1.15,2013-05-29 07:19:00,
2013-05-29 03:24:00,51.0,49.6,30.11,WNW,292,0.0,0.0,95,0.00,,,0.00,Wunderground v.1.15,2013-05-29 07:24:00,
2013-05-29 03:29:00,51.0,49.6,30.11,WNW,292,0.0,0.0,95,0.00,,,0.00,Wunderground v.1.15,2013-05-29 07:29:00,
2013-05-29 03:34:00,51.0,49.6,30.11,WNW,292,0.0,0.0,95,0.00,,,0.00,Wunderground v.1.15,2013-05-29 07:34:00,
2013-05-29 03:44:00,51.1,49.7,30.11,WNW,292,0.0,0.0,95,0.00,,,0.00,Wunderground v.1.15,2013-05-29 07:44:00,
2013-05-29 03:49:00,51.1,49.7,30.11,WNW,292,0.0,0.0,95,0.00,,,0.00,Wunderground v.1.15,2013-05-29 07:49:00,
2013-05-29 03:54:00,51.1,49.7,30.11,WNW,292,0.0,0.0,95,0.00,,,0.00,Wunderground v.1.15,2013-05-29 07:54:00,
2013-05-29 03:59:00,51.3,49.9,30.11,WNW,292,0.0,0.0,95,0.00,,,0.00,Wunderground v.1.15,2013-05-29 07:59:00,
2013-05-29 04:09:00,51.3,49.9,30.10,WNW,292,0.0,0.0,95,0.00,,,0.00,Wunderground v.1.15,2013-05-29 08:09:00,
2013-05-29 04:14:00,51.4,50.0,30.10,WNW,292,0.0,0.0,95,0.00,,,0.00,Wunderground v.1.15,2013-05-29 08:14:00,
2013-05-29 04:19:00,51.4,50.0,30.09,WNW,292,0.0,0.0,95,0.00,,,0.00,Wunderground v.1.15,2013-05-29 08:19:00,
2013-05-29 04:29:00,51.6,50.2,30.09,WNW,292,0.0,0.0,95,0.00,,,0.00,Wunderground v.1.15,2013-05-29 08:29:00,
2013-05-29 04:34:00,51.6,50.2,30.08,WNW,292,0.0,0.0,95,0.00,,,0.00,Wunderground v.1.15,2013-05-29 08:34:00,
2013-05-29 04:39:00,51.6,50.2,30.08,WNW,292,0.0,0.0,95,0.00,,,0.00,Wunderground v.1.15,2013-05-29 08:39:00,
2013-05-29 04:44:00,51.7,50.3,30.08,WNW,292,0.0,0.0,95,0.00,,,0.00,Wunderground v.1.15,2013-05-29 08:44:00,
2013-05-29 04:54:00,51.7,50.6,30.09,WNW,292,0.0,0.0,96,0.00,,,0.01,Wunderground v.1.15,2013-05-29 08:54:00,
2013-05-29 04:59:00,51.9,50.8,30.09,WNW,292,0.0,0.0,96,0.00,,,0.01,Wunderground v.1.15,2013-05-29 08:59:00,
2013-05-29 05:04:00,51.9,50.8,30.09,WNW,292,0.0,0.0,96,0.04,,,0.02,Wunderground v.1.15,2013-05-29 09:04:00,
2013-05-29 05:09:00,51.9,50.8,30.09,WNW,292,0.0,0.0,96,0.04,,,0.02,Wunderground v.1.15,2013-05-29 09:09:00,
2013-05-29 05:14:00,51.9,50.8,30.09,WNW,292,0.0,0.0,96,0.04,,,0.02,Wunderground v.1.15,2013-05-29 09:14:00,
2013-05-29 05:24:00,52.0,50.9,30.09,WNW,292,0.0,0.0,96,0.04,,,0.03,Wunderground v.1.15,2013-05-29 09:24:00,
2013-05-29 05:29:00,52.0,50.9,30.09,WNW,292,0.0,0.0,96,0.08,,,0.04,Wunderground v.1.15,2013-05-29 09:29:00,
2013-05-29 05:34:00,52.0,50.9,30.08,WNW,292,0.0,0.0,96,0.08,,,0.04,Wunderground v.1.15,2013-05-29 09:34:00,
2013-05-29 05:39:00,52.2,51.1,30.08,WNW,292,0.0,0.0,96,0.05,,,0.04,Wunderground v.1.15,2013-05-29 09:39:00,
2013-05-29 05:44:00,52.2,51.1,30.08,WNW,292,0.0,0.0,96,0.00,,,0.04,Wunderground v.1.15,2013-05-29 09:44:00,
2013-05-29 05:49:00,52.2,51.1,30.08,WNW,292,0.0,0.0,96,0.00,,,0.04,Wunderground v.1.15,2013-05-29 09:49:00,
2013-05-29 05:59:00,52.3,51.5,30.08,WNW,292,0.0,0.0,97,0.00,,,0.05,Wunderground v.1.15,2013-05-29 09:59:00,
2013-05-29 06:04:00,52.3,51.5,30.08,WNW,292,0.0,0.0,97,0.00,,,0.05,Wunderground v.1.15,2013-05-29 10:04:00,
2013-05-29 06:09:00,52.5,51.7,30.08,WNW,292,0.0,0.0,97,0.00,,,0.05,Wunderground v.1.15,2013-05-29 10:09:00,
2013-05-29 06:14:00,52.5,51.7,30.08,WNW,292,0.0,0.0,97,0.00,,,0.05,Wunderground v.1.15,2013-05-29 10:14:00,
2013-05-29 06:19:00,52.5,51.7,30.09,WNW,292,0.0,0.0,97,0.00,,,0.06,Wunderground v.1.15,2013-05-29 10:19:00,
2013-05-29 06:29:00,52.6,51.8,30.09,WNW,292,0.0,0.0,97,0.05,,,0.07,Wunderground v.1.15,2013-05-29 10:29:00,
2013-05-29 06:34:00,52.6,51.8,30.10,WNW,292,0.0,0.0,97,0.16,,,0.08,Wunderground v.1.15,2013-05-29 10:34:00,
2013-05-29 06:39:00,52.6,51.8,30.10,WNW,292,0.0,0.0,97,0.12,,,0.09,Wunderground v.1.15,2013-05-29 10:39:00,
2013-05-29 06:44:00,52.8,52.3,30.10,WNW,292,0.0,0.0,98,0.20,,,0.11,Wunderground v.1.15,2013-05-29 10:44:00,
2013-05-29 06:49:00,52.8,52.3,30.10,WNW,292,0.0,0.0,98,0.17,,,0.13,Wunderground v.1.15,2013-05-29 10:49:00,
2013-05-29 06:59:00,52.9,52.4,30.10,WNW,292,0.0,0.0,98,0.07,,,0.14,Wunderground v.1.15,2013-05-29 10:59:00,
2013-05-29 07:04:00,52.9,52.4,30.09,WNW,292,0.0,0.0,98,0.05,,,0.15,Wunderground v.1.15,2013-05-29 11:04:00,
2013-05-29 07:09:00,53.1,52.6,30.09,WNW,292,0.0,0.0,98,0.05,,,0.15,Wunderground v.1.15,2013-05-29 11:09:00,
2013-05-29 07:14:00,53.1,52.6,30.09,WNW,292,0.0,0.0,98,0.05,,,0.15,Wunderground v.1.15,2013-05-29 11:14:00,
2013-05-29 07:24:00,53.2,52.7,30.09,WNW,292,0.0,0.0,98,0.00,,,0.15,Wunderground v.1.15,2013-05-29 11:24:00,
2013-05-29 07:29:00,53.3,52.8,30.09,WNW,292,0.0,0.0,98,0.00,,,0.15,Wunderground v.1.15,2013-05-29 11:29:00,
2013-05-29 07:34:00,53.5,52.9,30.08,WNW,292,0.0,0.0,98,0.00,,,0.15,Wunderground v.1.15,2013-05-29 11:34:00,
2013-05-29 07:39:00,53.6,53.0,30.08,WNW,292,0.0,0.0,98,0.00,,,0.15,Wunderground v.1.15,2013-05-29 11:39:00,
2013-05-29 07:49:00,53.9,53.3,30.08,WNW,292,0.0,0.0,98,0.00,,,0.16,Wunderground v.1.15,2013-05-29 11:49:00,
2013-05-29 07:54:00,54.1,53.8,30.08,WNW,292,0.0,0.0,99,0.00,,,0.16,Wunderground v.1.15,2013-05-29 11:54:00,
2013-05-29 07:59:00,54.4,54.1,30.08,WNW,292,0.0,0.0,99,0.00,,,0.16,Wunderground v.1.15,2013-05-29 11:59:00,
2013-05-29 08:04:00,54.5,54.2,30.08,WNW,292,0.0,0.0,99,0.00,,,0.16,Wunderground v.1.15,2013-05-29 12:04:00,
2013-05-29 08:14:00,54.7,54.4,30.08,WNW,292,0.0,0.0,99,0.00,,,0.16,Wunderground v.1.15,2013-05-29 12:14:00,
2013-05-29 08:19:00,54.8,54.5,30.08,WNW,292,0.0,0.0,99,0.00,,,0.16,Wunderground v.1.15,2013-05-29 12:19:00,
2013-05-29 08:24:00,55.0,54.7,30.08,WNW,292,0.0,0.0,99,0.00,,,0.16,Wunderground v.1.15,2013-05-29 12:24:00,
2013-05-29 08:29:00,55.1,54.8,30.08,WNW,292,0.0,0.0,99,0.00,,,0.16,Wunderground v.1.15,2013-05-29 12:29:00,
2013-05-29 08:34:00,55.1,54.8,30.08,WNW,292,0.0,0.0,99,0.00,,,0.16,Wunderground v.1.15,2013-05-29 12:34:00,
2013-05-29 08:39:00,55.3,55.0,30.08,WNW,292,0.0,0.0,99,0.00,,,0.16,Wunderground v.1.15,2013-05-29 12:39:00,
2013-05-29 08:49:00,55.4,55.1,30.08,WNW,292,0.0,0.0,99,0.00,,,0.16,Wunderground v.1.15,2013-05-29 12:49:00,
2013-05-29 08:54:00,55.4,55.1,30.08,WNW,292,0.0,0.0,99,0.00,,,0.16,Wunderground v.1.15,2013-05-29 12:54:00,
2013-05-29 08:59:00,55.6,55.3,30.08,WNW,292,0.0,0.0,99,0.00,,,0.16,Wunderground v.1.15,2013-05-29 12:59:00,
2013-05-29 09:04:00,55.7,55.4,30.08,WNW,292,0.0,0.0,99,0.00,,,0.16,Wunderground v.1.15,2013-05-29 13:04:00,
2013-05-29 09:09:00,55.7,55.4,30.08,WNW,292,0.0,0.0,99,0.00,,,0.16,Wunderground v.1.15,2013-05-29 13:09:00,
2013-05-29 09:19:00,56.0,55.7,30.07,WNW,292,0.0,0.0,99,0.00,,,0.16,Wunderground v.1.15,2013-05-29 13:19:00,
2013-05-29 09:24:00,56.2,56.2,30.07,WNW,292,0.0,0.0,100,0.00,,,0.16,Wunderground v.1.15,2013-05-29 13:24:00,
2013-05-29 09:29:00,56.3,56.3,30.07,WNW,292,0.0,0.0,100,0.00,,,0.16,Wunderground v.1.15,2013-05-29 13:29:00,
2013-05-29 09:34:00,56.3,56.3,30.07,WNW,292,0.0,0.0,100,0.00,,,0.16,Wunderground v.1.15,2013-05-29 13:34:00,
2013-05-29 09:39:00,56.3,56.3,30.07,WNW,292,0.0,0.0,100,0.00,,,0.16,Wunderground v.1.15,2013-05-29 13:39:00,
2013-05-29 09:44:00,56.3,56.3,30.07,WNW,292,0.0,0.0,100,0.00,,,0.16,Wunderground v.1.15,2013-05-29 13:44:00,
2013-05-29 09:54:00,56.9,56.9,30.07,WNW,292,0.0,0.0,100,0.00,,,0.16,Wunderground v.1.15,2013-05-29 13:54:00,
2013-05-29 09:59:00,56.9,56.9,30.07,WNW,292,0.0,0.0,100,0.00,,,0.16,Wunderground v.1.15,2013-05-29 13:59:00,
2013-05-29 10:04:00,57.0,57.0,30.07,WNW,292,0.0,0.0,100,0.00,,,0.16,Wunderground v.1.15,2013-05-29 14:04:00,
2013-05-29 10:09:00,57.0,57.0,30.07,East,93,0.0,0.0,100,0.00,,,0.16,Wunderground v.1.15,2013-05-29 14:09:00,
2013-05-29 10:14:00,57.2,57.2,30.07,East,93,0.0,0.0,100,0.00,,,0.16,Wunderground v.1.15,2013-05-29 14:14:00,
2013-05-29 10:24:00,57.5,57.5,30.06,East,93,0.0,0.0,100,0.00,,,0.16,Wunderground v.1.15,2013-05-29 14:24:00,
2013-05-29 10:29:00,57.5,57.5,30.06,East,93,0.0,0.0,100,0.00,,,0.16,Wunderground v.1.15,2013-05-29 14:29:00,
2013-05-29 10:34:00,57.8,57.8,30.06,East,93,0.0,0.0,100,0.00,,,0.16,Wunderground v.1.15,2013-05-29 14:34:00,
2013-05-29 10:39:00,58.0,58.0,30.06,East,93,0.0,0.0,100,0.00,,,0.16,Wunderground v.1.15,2013-05-29 14:39:00,
2013-05-29 10:44:00,58.1,58.1,30.06,East,93,0.0,0.0,100,0.00,,,0.16,Wunderground v.1.15,2013-05-29 14:44:00,
2013-05-29 10:54:00,58.4,58.4,30.06,East,93,0.0,0.0,100,0.00,,,0.16,Wunderground v.1.15,2013-05-29 14:54:00,
2013-05-29 10:59:00,58.4,58.4,30.06,East,93,0.0,0.0,100,0.00,,,0.16,Wunderground v.1.15,2013-05-29 14:59:00,
2013-05-29 11:04:00,58.6,58.6,30.06,East,93,0.0,0.0,100,0.00,,,0.16,Wunderground v.1.15,2013-05-29 15:04:00,
2013-05-29 11:14:00,58.7,58.7,30.06,East,93,0.0,0.0,100,0.00,,,0.16,Wunderground v.1.15,2013-05-29 15:14:00,
2013-05-29 11:19:00,58.7,58.7,30.06,East,93,0.0,0.0,100,0.00,,,0.16,Wunderground v.1.15,2013-05-29 15:19:00,
2013-05-29 11:24:00,58.9,58.9,30.06,East,93,0.0,0.0,100,0.00,,,0.16,Wunderground v.1.15,2013-05-29 15:24:00,
2013-05-29 11:34:00,59.2,59.2,30.04,East,93,0.0,0.0,100,0.00,,,0.17,Wunderground v.1.15,2013-05-29 15:34:00,
2013-05-29 11:39:00,59.2,59.2,30.04,South,188,0.0,0.0,100,0.00,,,0.17,Wunderground v.1.15,2013-05-29 15:39:00,
2013-05-29 11:44:00,59.3,59.3,30.04,SSW,208,0.0,0.0,100,0.05,,,0.18,Wunderground v.1.15,2013-05-29 15:44:00,
2013-05-29 11:49:00,59.5,59.5,30.02,SW,217,0.0,0.0,100,0.05,,,0.18,Wunderground v.1.15,2013-05-29 15:49:00,
2013-05-29 11:54:00,59.6,59.6,30.02,South,186,0.0,0.0,100,0.05,,,0.18,Wunderground v.1.15,2013-05-29 15:54:00,
2013-05-29 12:04:00,59.8,59.8,30.01,South,184,0.0,0.0,100,0.00,,,0.18,Wunderground v.1.15,2013-05-29 16:04:00,
2013-05-29 12:09:00,59.8,59.8,30.01,WSW,239,0.0,0.0,100,0.00,,,0.18,Wunderground v.1.15,2013-05-29 16:09:00,
2013-05-29 12:14:00,60.1,60.1,30.01,WSW,247,0.0,0.0,100,0.00,,,0.18,Wunderground v.1.15,2013-05-29 16:14:00,
2013-05-29 12:19:00,60.4,60.4,30.01,WSW,247,0.0,0.0,100,0.00,,,0.18,Wunderground v.1.15,2013-05-29 16:19:00,
2013-05-29 12:24:00,60.4,60.4,30.01,WSW,247,0.0,0.0,100,0.00,,,0.18,Wunderground v.1.15,2013-05-29 16:24:00,
2013-05-29 12:29:00,60.4,60.4,30.01,SSW,198,0.0,0.0,100,0.00,,,0.18,Wunderground v.1.15,2013-05-29 16:29:00,
2013-05-29 12:39:00,60.5,60.2,30.02,SSW,198,0.0,0.0,99,0.00,,,0.18,Wunderground v.1.15,2013-05-29 16:39:00,
2013-05-29 12:44:00,60.7,60.4,30.02,SSW,198,0.0,0.0,99,0.00,,,0.18,Wunderground v.1.15,2013-05-29 16:44:00,
2013-05-29 12:49:00,60.7,60.4,30.02,SSW,198,0.0,0.0,99,0.00,,,0.18,Wunderground v.1.15,2013-05-29 16:49:00,
2013-05-29 12:54:00,60.7,60.4,30.02,SSW,198,0.0,0.0,99,0.00,,,0.18,Wunderground v.1.15,2013-05-29 16:54:00,
2013-05-29 12:59:00,60.7,60.4,30.02,SSW,198,0.0,0.0,99,0.00,,,0.18,Wunderground v.1.15,2013-05-29 16:59:00,
2013-05-29 13:09:00,60.7,60.4,30.03,SSW,198,0.0,0.0,99,0.00,,,0.18,Wunderground v.1.15,2013-05-29 17:09:00,
2013-05-29 13:14:00,60.9,60.6,30.03,SSW,198,0.0,0.0,99,0.00,,,0.18,Wunderground v.1.15,2013-05-29 17:14:00,
2013-05-29 13:19:00,60.9,60.6,30.04,SSW,198,0.0,0.0,99,0.00,,,0.18,Wunderground v.1.15,2013-05-29 17:19:00,
2013-05-29 13:24:00,60.9,60.6,30.04,SSW,198,0.0,0.0,99,0.00,,,0.18,Wunderground v.1.15,2013-05-29 17:24:00,
2013-05-29 13:29:00,60.9,60.6,30.04,SSW,198,0.0,0.0,99,0.00,,,0.18,Wunderground v.1.15,2013-05-29 17:29:00,
2013-05-29 13:34:00,60.9,60.6,30.04,SSW,198,0.0,0.0,99,0.00,,,0.18,Wunderground v.1.15,2013-05-29 17:34:00,
2013-05-29 13:44:00,61.0,60.7,30.04,SSW,198,0.0,0.0,99,0.00,,,0.18,Wunderground v.1.15,2013-05-29 17:44:00,
2013-05-29 13:49:00,61.2,60.9,30.03,SSW,198,0.0,0.0,99,0.00,,,0.18,Wunderground v.1.15,2013-05-29 17:49:00,
2013-05-29 13:54:00,61.2,60.9,30.03,SSW,198,0.0,0.0,99,0.00,,,0.18,Wunderground v.1.15,2013-05-29 17:54:00,
2013-05-29 13:59:00,61.2,60.9,30.03,SSW,198,0.0,0.0,99,0.00,,,0.18,Wunderground v.1.15,2013-05-29 17:59:00,
2013-05-29 14:04:00,61.3,61.0,30.02,SSW,198,0.0,0.0,99,0.00,,,0.18,Wunderground v.1.15,2013-05-29 18:04:00,
2013-05-29 14:14:00,61.5,60.9,30.02,SSW,198,0.0,0.0,98,0.00,,,0.18,Wunderground v.1.15,2013-05-29 18:14:00,
2013-05-29 14:19:00,61.5,60.9,30.02,SSW,198,0.0,0.0,98,0.00,,,0.18,Wunderground v.1.15,2013-05-29 18:19:00,
2013-05-29 14:24:00,61.5,60.9,30.02,SSW,198,0.0,0.0,98,0.00,,,0.18,Wunderground v.1.15,2013-05-29 18:24:00,
2013-05-29 14:29:00,61.3,60.7,30.02,SSW,203,0.0,0.0,98,0.00,,,0.18,Wunderground v.1.15,2013-05-29 18:29:00,
2013-05-29 14:34:00,61.3,60.7,30.02,SSW,203,0.0,0.0,98,0.00,,,0.18,Wunderground v.1.15,2013-05-29 18:34:00,
2013-05-29 14:44:00,61.3,60.7,30.02,SSW,203,0.0,0.0,98,0.00,,,0.18,Wunderground v.1.15,2013-05-29 18:44:00,
2013-05-29 14:49:00,61.5,60.9,30.02,SSW,203,0.0,0.0,98,0.00,,,0.18,Wunderground v.1.15,2013-05-29 18:49:00,
2013-05-29 14:59:00,61.3,60.7,30.02,SSW,203,0.0,0.0,98,0.00,,,0.18,Wunderground v.1.15,2013-05-29 18:59:00,
2013-05-29 15:04:00,61.3,60.7,30.01,SSW,206,0.0,0.0,98,0.00,,,0.18,Wunderground v.1.15,2013-05-29 19:04:00,
2013-05-29 15:09:00,61.3,60.4,30.01,SSW,206,0.0,0.0,97,0.00,,,0.18,Wunderground v.1.15,2013-05-29 19:09:00,
2013-05-29 15:14:00,61.3,60.4,30.01,SSW,206,0.0,0.0,97,0.00,,,0.18,Wunderground v.1.15,2013-05-29 19:14:00,
2013-05-29 15:24:00,61.3,60.7,30.01,SSW,206,0.0,0.0,98,0.00,,,0.18,Wunderground v.1.15,2013-05-29 19:24:00,
2013-05-29 15:29:00,61.3,60.7,30.01,SSW,206,0.0,0.0,98,0.00,,,0.18,Wunderground v.1.15,2013-05-29 19:29:00,
2013-05-29 15:34:00,61.3,60.7,30.01,SSW,206,0.0,0.0,98,0.00,,,0.18,Wunderground v.1.15,2013-05-29 19:34:00,
2013-05-29 15:39:00,61.3,60.7,30.01,SSW,206,0.0,0.0,98,0.00,,,0.18,Wunderground v.1.15,2013-05-29 19:39:00,
2013-05-29 15:44:00,61.3,60.7,30.01,SSW,206,0.0,0.0,98,0.00,,,0.18,Wunderground v.1.15,2013-05-29 19:44:00,
2013-05-29 15:54:00,61.3,60.7,30.01,SSW,206,0.0,0.0,98,0.00,,,0.18,Wunderground v.1.15,2013-05-29 19:54:00,
2013-05-29 15:59:00,61.3,60.7,30.01,SSW,206,0.0,0.0,98,0.00,,,0.18,Wunderground v.1.15,2013-05-29 19:59:00,
2013-05-29 16:04:00,61.3,60.7,30.02,SSW,206,0.0,0.0,98,0.00,,,0.18,Wunderground v.1.15,2013-05-29 20:04:00,
2013-05-29 16:09:00,61.3,60.7,30.02,SSW,206,0.0,0.0,98,0.00,,,0.18,Wunderground v.1.15,2013-05-29 20:09:00,
2013-05-29 16:14:00,61.3,60.7,30.02,SSW,206,0.0,0.0,98,0.00,,,0.18,Wunderground v.1.15,2013-05-29 20:14:00,
2013-05-29 16:19:00,61.3,60.7,30.01,SE,131,0.0,0.0,98,0.00,,,0.18,Wunderground v.1.15,2013-05-29 20:19:00,
2013-05-29 16:29:00,61.3,60.7,30.01,SSW,206,0.0,0.0,98,0.00,,,0.18,Wunderground v.1.15,2013-05-29 20:29:00,
2013-05-29 16:34:00,61.5,60.9,30.00,SSW,206,0.0,0.0,98,0.00,,,0.18,Wunderground v.1.15,2013-05-29 20:34:00,
2013-05-29 16:39:00,61.5,60.9,30.00,SSW,206,0.0,0.0,98,0.00,,,0.18,Wunderground v.1.15,2013-05-29 20:39:00,
2013-05-29 16:44:00,61.5,60.9,30.00,SSW,206,0.0,0.0,98,0.00,,,0.18,Wunderground v.1.15,2013-05-29 20:44:00,
2013-05-29 16:49:00,61.5,60.9,30.00,SSW,206,0.0,0.0,98,0.00,,,0.18,Wunderground v.1.15,2013-05-29 20:49:00,
2013-05-29 16:59:00,61.5,60.9,30.00,SSW,206,0.0,0.0,98,0.00,,,0.18,Wunderground v.1.15,2013-05-29 20:59:00,
2013-05-29 17:04:00,61.6,61.0,30.00,SSW,206,0.0,0.0,98,0.00,,,0.18,Wunderground v.1.15,2013-05-29 21:04:00,
2013-05-29 17:09:00,61.6,61.0,30.00,SSW,206,0.0,0.0,98,0.00,,,0.18,Wunderground v.1.15,2013-05-29 21:09:00,
2013-05-29 17:14:00,61.6,61.0,30.00,SSW,206,0.0,0.0,98,0.00,,,0.18,Wunderground v.1.15,2013-05-29 21:14:00,
2013-05-29 17:19:00,61.6,61.0,30.00,SSW,206,0.0,0.0,98,0.00,,,0.18,Wunderground v.1.15,2013-05-29 21:19:00,
2013-05-29 17:24:00,61.6,61.0,30.00,SSW,206,0.0,0.0,98,0.00,,,0.18,Wunderground v.1.15,2013-05-29 21:24:00,
2013-05-29 17:34:00,61.6,61.0,30.00,SSW,206,0.0,0.0,98,0.00,,,0.18,Wunderground v.1.15,2013-05-29 21:34:00,
2013-05-29 17:39:00,61.6,61.0,30.00,SSW,206,0.0,0.0,98,0.00,,,0.18,Wunderground v.1.15,2013-05-29 21:39:00,
2013-05-29 17:44:00,61.6,61.0,30.00,SSW,206,0.0,0.0,98,0.00,,,0.18,Wunderground v.1.15,2013-05-29 21:44:00,
2013-05-29 17:54:00,61.6,61.0,30.00,SSW,206,0.0,0.0,98,0.00,,,0.18,Wunderground v.1.15,2013-05-29 21:54:00,
2013-05-29 17:59:00,61.6,61.0,30.00,SSW,206,0.0,0.0,98,0.00,,,0.18,Wunderground v.1.15,2013-05-29 21:59:00,
2013-05-29 18:09:00,61.6,61.0,29.99,SSW,206,0.0,0.0,98,0.00,,,0.18,Wunderground v.1.15,2013-05-29 22:09:00,
2013-05-29 18:14:00,61.6,61.0,29.99,SSW,206,0.0,0.0,98,0.00,,,0.18,Wunderground v.1.15,2013-05-29 22:14:00,
2013-05-29 18:19:00,61.6,61.0,29.99,SSW,206,0.0,0.0,98,0.00,,,0.18,Wunderground v.1.15,2013-05-29 22:19:00,
2013-05-29 18:24:00,61.6,61.0,29.99,SSW,206,0.0,0.0,98,0.00,,,0.18,Wunderground v.1.15,2013-05-29 22:24:00,
2013-05-29 18:29:00,61.6,61.0,29.99,SSW,206,0.0,0.0,98,0.00,,,0.18,Wunderground v.1.15,2013-05-29 22:29:00,
2013-05-29 18:39:00,61.6,61.0,29.99,SSW,206,0.0,0.0,98,0.00,,,0.18,Wunderground v.1.15,2013-05-29 22:39:00,
2013-05-29 18:44:00,61.6,61.0,29.99,SSW,206,0.0,0.0,98,0.00,,,0.18,Wunderground v.1.15,2013-05-29 22:44:00,
2013-05-29 18:49:00,61.6,61.0,29.98,SSW,206,0.0,0.0,98,0.00,,,0.18,Wunderground v.1.15,2013-05-29 22:49:00,
2013-05-29 18:54:00,61.6,61.0,29.98,SSW,206,0.0,0.0,98,0.00,,,0.18,Wunderground v.1.15,2013-05-29 22:54:00,
2013-05-29 18:59:00,61.6,61.0,29.98,SSW,206,0.0,0.0,98,0.00,,,0.18,Wunderground v.1.15,2013-05-29 22:59:00,
2013-05-29 19:04:00,61.6,61.0,29.97,SSW,206,0.0,0.0,98,0.00,,,0.18,Wunderground v.1.15,2013-05-29 23:04:00,
2013-05-29 19:13:00,61.6,61.0,29.97,SSW,208,0.0,0.0,98,0.00,,,0.18,Wunderground v.1.15,2013-05-29 23:13:00,
2013-05-29 19:18:00,61.5,60.9,29.97,SSW,208,0.0,0.0,98,0.00,,,0.18,Wunderground v.1.15,2013-05-29 23:18:00,
2013-05-29 19:23:00,61.5,60.9,29.97,SSW,208,0.0,0.0,98,0.00,,,0.18,Wunderground v.1.15,2013-05-29 23:23:00,
2013-05-29 19:29:00,61.5,60.9,29.97,SSW,208,0.0,0.0,98,0.00,,,0.18,Wunderground v.1.15,2013-05-29 23:29:00,
2013-05-29 19:34:00,61.5,60.9,29.98,SSW,208,0.0,0.0,98,0.00,,,0.18,Wunderground v.1.15,2013-05-29 23:34:00,
2013-05-29 19:44:00,61.3,60.7,29.98,SSW,208,0.0,0.0,98,0.00,,,0.18,Wunderground v.1.15,2013-05-29 23:44:00,
2013-05-29 19:49:00,61.3,60.7,29.97,SSW,208,0.0,0.0,98,0.00,,,0.18,Wunderground v.1.15,2013-05-29 23:49:00,
2013-05-29 19:54:00,61.3,60.7,29.97,SSW,208,0.0,0.0,98,0.00,,,0.18,Wunderground v.1.15,2013-05-29 23:54:00,
2013-05-29 19:59:00,61.3,60.7,29.97,SSW,208,0.0,0.0,98,0.00,,,0.18,Wunderground v.1.15,2013-05-29 23:59:00,
2013-05-29 20:04:00,61.2,60.6,29.97,SSW,208,0.0,0.0,98,0.00,,,0.18,Wunderground v.1.15,2013-05-30 00:04:00,
2013-05-29 20:09:00,61.2,60.6,29.97,SSW,208,0.0,0.0,98,0.00,,,0.18,Wunderground v.1.15,2013-05-30 00:09:00,
2013-05-29 20:19:00,61.2,60.6,29.97,SSW,208,0.0,0.0,98,0.00,,,0.18,Wunderground v.1.15,2013-05-30 00:19:00,
2013-05-29 20:24:00,61.0,60.4,29.97,SSW,208,0.0,0.0,98,0.00,,,0.18,Wunderground v.1.15,2013-05-30 00:24:00,
2013-05-29 20:29:00,61.0,60.4,29.97,SSW,208,0.0,0.0,98,0.00,,,0.18,Wunderground v.1.15,2013-05-30 00:29:00,
2013-05-29 20:34:00,61.0,60.4,29.98,SSW,208,0.0,0.0,98,0.00,,,0.18,Wunderground v.1.15,2013-05-30 00:34:00,
2013-05-29 20:39:00,61.0,60.4,29.98,SSW,208,0.0,0.0,98,0.00,,,0.18,Wunderground v.1.15,2013-05-30 00:39:00,
2013-05-29 20:49:00,61.0,60.4,29.98,SSW,208,0.0,0.0,98,0.00,,,0.18,Wunderground v.1.15,2013-05-30 00:49:00,
2013-05-29 20:54:00,61.0,60.4,29.98,SSW,208,0.0,0.0,98,0.00,,,0.18,Wunderground v.1.15,2013-05-30 00:54:00,
2013-05-29 20:59:00,61.0,60.4,29.98,SSW,208,0.0,0.0,98,0.00,,,0.18,Wunderground v.1.15,2013-05-30 00:59:00,
2013-05-29 21:04:00,61.0,60.4,29.99,SSW,208,0.0,0.0,98,0.00,,,0.18,Wunderground v.1.15,2013-05-30 01:04:00,
2013-05-29 21:09:00,61.0,60.4,29.99,SSW,208,0.0,0.0,98,0.00,,,0.18,Wunderground v.1.15,2013-05-30 01:09:00,
2013-05-29 21:14:00,61.0,60.7,29.99,SSW,208,0.0,0.0,99,0.00,,,0.18,Wunderground v.1.15,2013-05-30 01:14:00,
2013-05-29 21:24:00,60.9,60.6,29.97,SSW,208,0.0,0.0,99,0.00,,,0.18,Wunderground v.1.15,2013-05-30 01:24:00,
2013-05-29 21:29:00,60.9,60.6,29.97,SW,215,0.0,0.0,99,0.05,,,0.19,Wunderground v.1.15,2013-05-30 01:29:00,
2013-05-29 21:34:00,60.9,60.6,29.97,SW,215,0.0,0.0,99,0.05,,,0.20,Wunderground v.1.15,2013-05-30 01:34:00,
2013-05-29 21:39:00,60.7,60.4,29.97,SW,216,0.0,0.0,99,0.05,,,0.20,Wunderground v.1.15,2013-05-30 01:39:00,
2013-05-29 21:44:00,60.7,60.4,29.97,SW,219,0.0,0.0,99,0.05,,,0.20,Wunderground v.1.15,2013-05-30 01:44:00,
2013-05-29 21:54:00,60.7,60.4,29.97,SW,233,0.0,2.0,99,0.09,,,0.22,Wunderground v.1.15,2013-05-30 01:54:00,
2013-05-29 21:59:00,60.5,60.2,29.97,SW,233,1.0,1.0,99,0.08,,,0.23,Wunderground v.1.15,2013-05-30 01:59:00,
2013-05-29 22:04:00,60.5,60.2,29.96,SW,233,0.0,1.0,99,0.10,,,0.24,Wunderground v.1.15,2013-05-30 02:04:00,
2013-05-29 22:09:00,60.2,59.9,29.96,SW,233,0.0,0.0,99,0.17,,,0.24,Wunderground v.1.15,2013-05-30 02:09:00,
2013-05-29 22:14:00,60.2,59.9,29.96,SW,233,0.0,0.0,99,0.10,,,0.25,Wunderground v.1.15,2013-05-30 02:14:00,
2013-05-29 22:19:00,60.1,59.5,29.97,SW,233,0.0,0.0,98,0.20,,,0.27,Wunderground v.1.15,2013-05-30 02:19:00,
2013-05-29 22:29:00,59.9,59.3,29.97,SW,233,0.0,0.0,98,0.14,,,0.29,Wunderground v.1.15,2013-05-30 02:29:00,
2013-05-29 22:34:00,59.9,59.6,29.97,SW,233,0.0,0.0,99,0.20,,,0.31,Wunderground v.1.15,2013-05-30 02:34:00,
2013-05-29 22:39:00,59.9,59.6,29.97,SW,233,0.0,0.0,99,0.13,,,0.32,Wunderground v.1.15,2013-05-30 02:39:00,
2013-05-29 22:44:00,59.8,59.5,29.97,SSE,160,0.0,0.0,99,0.27,,,0.34,Wunderground v.1.15,2013-05-30 02:44:00,
2013-05-29 22:49:00,59.8,59.5,29.96,SSW,199,0.0,0.0,99,0.25,,,0.35,Wunderground v.1.15,2013-05-30 02:49:00,
2013-05-29 22:59:00,59.6,59.3,29.96,SSW,199,0.0,0.0,99,0.04,,,0.35,Wunderground v.1.15,2013-05-30 02:59:00,
2013-05-29 23:04:00,59.6,59.3,29.96,SSW,199,0.0,0.0,99,0.00,,,0.35,Wunderground v.1.15,2013-05-30 03:04:00,
2013-05-29 23:09:00,59.6,59.3,29.96,SSW,199,0.0,0.0,99,0.00,,,0.35,Wunderground v.1.15,2013-05-30 03:09:00,
2013-05-29 23:19:00,59.5,59.2,29.95,SSW,199,0.0,0.0,99,0.00,,,0.35,Wunderground v.1.15,2013-05-30 03:19:00,
2013-05-29 23:24:00,59.5,59.2,29.95,SSW,199,0.0,0.0,99,0.00,,,0.35,Wunderground v.1.15,2013-05-30 03:24:00,
2013-05-29 23:29:00,59.5,59.2,29.95,SSW,199,0.0,0.0,99,0.00,,,0.35,Wunderground v.1.15,2013-05-30 03:29:00,
2013-05-29 23:38:00,59.5,59.2,29.96,SSW,199,0.0,0.0,99,0.00,,,0.35,Wunderground v.1.15,2013-05-30 03:38:00,
2013-05-29 23:44:00,59.5,59.2,29.96,SSW,199,0.0,0.0,99,0.00,,,0.35,Wunderground v.1.15,2013-05-30 03:44:00,
2013-05-29 23:49:00,59.5,59.2,29.96,SSW,199,0.0,0.0,99,0.00,,,0.35,Wunderground v.1.15,2013-05-30 03:49:00,
2013-05-29 23:54:00,59.5,59.2,29.96,SSW,199,0.0,0.0,99,0.00,,,0.35,Wunderground v.1.15,2013-05-30 03:54:00,
2013-05-29 23:59:00,59.5,59.2,29.96,SSW,199,0.0,0.0,99,0.00,,,0.35,Wunderground v.1.15,2013-05-30 03:59:00,